createdAt,value
2019-05-21T00:00:19.482Z,17.25
2019-05-21T00:01:19.468Z,17.24
2019-05-21T00:02:19.465Z,17.23
2019-05-21T00:03:19.441Z,17.22
2019-05-21T00:04:27.877Z,17.22
2019-05-21T00:05:20.418Z,17.19
2019-05-21T00:06:19.408Z,17.20
2019-05-21T00:07:19.399Z,17.20
2019-05-21T00:08:19.399Z,17.19
2019-05-21T00:09:19.376Z,17.19
2019-05-21T00:10:19.368Z,17.19
2019-05-21T00:11:19.361Z,17.17
2019-05-21T00:12:19.351Z,17.17
2019-05-21T00:13:19.334Z,17.17
2019-05-21T00:14:19.354Z,17.17
2019-05-21T00:15:19.316Z,17.15
2019-05-21T00:16:19.364Z,17.14
2019-05-21T00:17:19.291Z,17.13
2019-05-21T00:18:19.284Z,17.13
2019-05-21T00:19:19.269Z,17.11
2019-05-21T00:20:19.275Z,17.11
2019-05-21T00:21:19.256Z,17.09
2019-05-21T00:22:19.239Z,17.08
2019-05-21T00:23:19.228Z,17.09
2019-05-21T00:24:19.231Z,17.08
2019-05-21T00:25:19.210Z,17.07
2019-05-21T00:26:19.222Z,17.08
2019-05-21T00:27:19.184Z,17.09
2019-05-21T00:28:19.174Z,17.09
2019-05-21T00:29:19.167Z,17.09
2019-05-21T00:30:19.157Z,17.10
2019-05-21T00:31:19.146Z,17.09
2019-05-21T00:32:19.141Z,17.09
2019-05-21T00:33:19.120Z,17.07
2019-05-21T00:34:19.110Z,17.07
2019-05-21T00:35:19.100Z,17.07
2019-05-21T00:36:19.088Z,17.05
2019-05-21T00:37:19.081Z,17.07
2019-05-21T00:38:19.077Z,17.07
2019-05-21T00:39:19.058Z,17.07
2019-05-21T00:40:19.044Z,17.05
2019-05-21T00:41:19.033Z,17.05
2019-05-21T00:42:19.025Z,17.04
2019-05-21T00:43:19.036Z,17.03
2019-05-21T00:44:19.015Z,17.03
2019-05-21T00:45:19.012Z,17.04
2019-05-21T00:46:18.981Z,17.03
2019-05-21T00:47:18.971Z,17.03
2019-05-21T00:48:18.960Z,17.02
2019-05-21T00:49:18.948Z,17.01
2019-05-21T00:50:18.965Z,17.00
2019-05-21T00:51:18.933Z,16.99
2019-05-21T00:52:18.919Z,17.00
2019-05-21T00:53:18.948Z,17.00
2019-05-21T00:54:18.898Z,16.99
2019-05-21T00:55:18.885Z,17.01
2019-05-21T00:56:18.886Z,17.00
2019-05-21T00:57:18.865Z,17.00
2019-05-21T00:58:18.880Z,16.99
2019-05-21T00:59:18.843Z,16.98
2019-05-21T01:00:18.837Z,16.98
2019-05-21T01:01:18.825Z,16.99
2019-05-21T01:02:18.824Z,17.00
2019-05-21T01:03:18.799Z,17.02
2019-05-21T01:04:18.799Z,17.02
2019-05-21T01:05:18.782Z,17.04
2019-05-21T01:06:18.767Z,17.04
2019-05-21T01:07:18.763Z,17.04
2019-05-21T01:08:18.791Z,17.04
2019-05-21T01:09:18.734Z,17.04
2019-05-21T01:10:18.726Z,17.05
2019-05-21T01:11:18.712Z,17.04
2019-05-21T01:12:18.717Z,17.04
2019-05-21T01:13:18.694Z,17.03
2019-05-21T01:14:18.697Z,17.04
2019-05-21T01:15:18.670Z,17.03
2019-05-21T01:16:18.658Z,17.03
2019-05-21T01:17:18.648Z,17.03
2019-05-21T01:18:18.637Z,17.05
2019-05-21T01:19:18.626Z,17.04
2019-05-21T01:20:18.631Z,17.04
2019-05-21T01:21:18.605Z,17.04
2019-05-21T01:22:18.595Z,17.05
2019-05-21T01:23:18.583Z,17.05
2019-05-21T01:24:18.573Z,17.04
2019-05-21T01:25:18.562Z,17.05
2019-05-21T01:26:18.571Z,17.04
2019-05-21T01:27:18.546Z,17.05
2019-05-21T01:28:18.543Z,17.04
2019-05-21T01:29:18.520Z,17.03
2019-05-21T01:30:18.507Z,17.02
2019-05-21T01:31:18.504Z,17.01
2019-05-21T01:32:18.496Z,17.01
2019-05-21T01:33:18.475Z,17.02
2019-05-21T01:34:18.462Z,17.00
2019-05-21T01:35:18.465Z,16.99
2019-05-21T01:36:18.454Z,16.99
2019-05-21T01:37:18.431Z,16.98
2019-05-21T01:38:18.444Z,16.97
2019-05-21T01:39:18.409Z,16.95
2019-05-21T01:40:18.403Z,16.95
2019-05-21T01:41:18.394Z,16.94
2019-05-21T01:42:18.377Z,16.95
2019-05-21T01:43:18.368Z,16.95
2019-05-21T01:44:18.368Z,16.94
2019-05-21T01:45:18.348Z,16.93
2019-05-21T01:46:18.337Z,16.94
2019-05-21T01:47:18.323Z,16.93
2019-05-21T01:48:18.314Z,16.92
2019-05-21T01:49:18.311Z,16.92
2019-05-21T01:50:18.330Z,16.91
2019-05-21T01:51:18.405Z,16.91
2019-05-21T01:52:18.272Z,16.89
2019-05-21T01:53:18.260Z,16.89
2019-05-21T01:54:18.252Z,16.88
2019-05-21T01:55:18.240Z,16.88
2019-05-21T01:56:18.242Z,16.86
2019-05-21T01:57:18.219Z,16.87
2019-05-21T01:58:18.241Z,16.87
2019-05-21T01:59:18.196Z,16.86
2019-05-21T02:00:18.186Z,16.86
2019-05-21T02:01:18.175Z,16.87
2019-05-21T02:02:18.175Z,16.86
2019-05-21T02:03:18.155Z,16.85
2019-05-21T02:04:18.142Z,16.86
2019-05-21T02:05:31.998Z,16.86
2019-05-21T02:06:19.120Z,16.85
2019-05-21T02:07:18.113Z,16.85
2019-05-21T02:08:18.112Z,16.85
2019-05-21T02:09:18.089Z,16.86
2019-05-21T02:10:18.079Z,16.85
2019-05-21T02:11:18.068Z,16.86
2019-05-21T02:12:18.065Z,16.86
2019-05-21T02:13:18.048Z,16.86
2019-05-21T02:14:18.053Z,16.84
2019-05-21T02:15:18.026Z,16.84
2019-05-21T02:16:18.015Z,16.84
2019-05-21T02:17:18.023Z,16.83
2019-05-21T02:18:17.994Z,16.82
2019-05-21T02:19:17.982Z,16.83
2019-05-21T02:20:17.984Z,16.82
2019-05-21T02:21:17.961Z,16.82
2019-05-21T02:22:17.958Z,16.82
2019-05-21T02:23:17.951Z,16.82
2019-05-21T02:24:17.930Z,16.81
2019-05-21T02:25:17.919Z,16.81
2019-05-21T02:26:17.921Z,16.80
2019-05-21T02:27:17.899Z,16.81
2019-05-21T02:28:17.887Z,16.80
2019-05-21T02:29:17.879Z,16.83
2019-05-21T02:30:17.868Z,16.83
2019-05-21T02:31:17.855Z,16.83
2019-05-21T02:32:17.860Z,16.83
2019-05-21T02:33:17.837Z,16.83
2019-05-21T02:34:17.824Z,16.83
2019-05-21T02:35:17.812Z,16.83
2019-05-21T02:36:17.806Z,16.85
2019-05-21T02:37:17.792Z,16.84
2019-05-21T02:38:17.798Z,16.84
2019-05-21T02:39:17.771Z,16.84
2019-05-21T02:40:17.761Z,16.84
2019-05-21T02:41:17.750Z,16.83
2019-05-21T02:42:17.740Z,16.84
2019-05-21T02:43:17.727Z,16.82
2019-05-21T02:44:17.728Z,16.83
2019-05-21T02:45:17.707Z,16.84
2019-05-21T02:46:17.696Z,16.84
2019-05-21T02:47:17.685Z,16.86
2019-05-21T02:48:17.685Z,16.84
2019-05-21T02:49:17.667Z,16.85
2019-05-21T02:50:17.743Z,16.86
2019-05-21T02:51:17.658Z,16.86
2019-05-21T02:52:17.632Z,16.86
2019-05-21T02:53:17.621Z,16.86
2019-05-21T02:54:17.609Z,16.86
2019-05-21T02:55:17.600Z,16.86
2019-05-21T02:56:17.600Z,16.86
2019-05-21T02:57:17.587Z,16.86
2019-05-21T02:58:17.575Z,16.85
2019-05-21T02:59:17.558Z,16.87
2019-05-21T03:00:17.546Z,16.85
2019-05-21T03:01:18.054Z,16.86
2019-05-21T03:02:17.541Z,16.86
2019-05-21T03:03:17.516Z,16.85
2019-05-21T03:04:17.502Z,16.87
2019-05-21T03:05:17.491Z,16.87
2019-05-21T03:06:17.485Z,16.88
2019-05-21T03:07:17.469Z,16.88
2019-05-21T03:08:17.471Z,16.88
2019-05-21T03:09:17.449Z,16.89
2019-05-21T03:10:17.439Z,16.90
2019-05-21T03:11:17.427Z,16.90
2019-05-21T03:12:17.416Z,16.90
2019-05-21T03:13:17.406Z,16.92
2019-05-21T03:14:17.417Z,16.90
2019-05-21T03:15:17.386Z,16.90
2019-05-21T03:16:17.375Z,16.89
2019-05-21T03:17:17.365Z,16.90
2019-05-21T03:18:17.355Z,16.90
2019-05-21T03:19:17.359Z,16.90
2019-05-21T03:20:17.343Z,16.88
2019-05-21T03:21:17.321Z,16.89
2019-05-21T03:22:17.311Z,16.88
2019-05-21T03:23:17.300Z,16.88
2019-05-21T03:24:17.290Z,16.86
2019-05-21T03:25:17.281Z,16.85
2019-05-21T03:26:17.281Z,16.85
2019-05-21T03:27:17.256Z,16.83
2019-05-21T03:28:17.248Z,16.82
2019-05-21T03:29:17.238Z,16.80
2019-05-21T03:30:17.237Z,16.80
2019-05-21T03:31:17.216Z,16.79
2019-05-21T03:32:17.239Z,16.76
2019-05-21T03:33:17.244Z,16.76
2019-05-21T03:34:17.192Z,16.75
2019-05-21T03:35:17.331Z,16.76
2019-05-21T03:36:32.560Z,16.76
2019-05-21T03:37:18.160Z,16.75
2019-05-21T03:38:17.146Z,16.75
2019-05-21T03:39:19.481Z,16.73
2019-05-21T03:40:17.120Z,16.74
2019-05-21T03:41:17.109Z,16.74
2019-05-21T03:42:17.097Z,16.74
2019-05-21T03:43:17.098Z,16.74
2019-05-21T03:44:17.081Z,16.75
2019-05-21T03:45:17.067Z,16.75
2019-05-21T03:46:17.079Z,16.75
2019-05-21T03:47:17.044Z,16.76
2019-05-21T03:48:17.034Z,16.77
2019-05-21T03:49:17.033Z,16.77
2019-05-21T03:50:17.024Z,16.77
2019-05-21T03:51:17.003Z,16.78
2019-05-21T03:52:16.994Z,16.78
2019-05-21T03:53:16.987Z,16.79
2019-05-21T03:54:16.996Z,16.80
2019-05-21T03:55:16.979Z,16.80
2019-05-21T03:56:16.958Z,16.79
2019-05-21T03:57:16.939Z,16.80
2019-05-21T03:58:16.932Z,16.81
2019-05-21T03:59:16.917Z,16.81
2019-05-21T04:00:16.911Z,16.81
2019-05-21T04:01:16.911Z,16.81
2019-05-21T04:02:16.883Z,16.82
2019-05-21T04:03:16.921Z,16.83
2019-05-21T04:04:16.863Z,16.83
2019-05-21T04:05:16.852Z,16.82
2019-05-21T04:06:16.842Z,16.83
2019-05-21T04:07:16.842Z,16.83
2019-05-21T04:08:16.821Z,16.82
2019-05-21T04:09:16.810Z,16.81
2019-05-21T04:10:16.798Z,16.82
2019-05-21T04:11:16.789Z,16.83
2019-05-21T04:12:16.784Z,16.82
2019-05-21T04:13:16.779Z,16.82
2019-05-21T04:14:16.757Z,16.82
2019-05-21T04:15:16.750Z,16.83
2019-05-21T04:16:16.738Z,16.83
2019-05-21T04:17:16.725Z,16.81
2019-05-21T04:18:16.714Z,16.79
2019-05-21T04:19:16.714Z,16.79
2019-05-21T04:20:16.693Z,16.79
2019-05-21T04:21:16.688Z,16.79
2019-05-21T04:22:16.672Z,16.80
2019-05-21T04:23:16.660Z,16.80
2019-05-21T04:24:16.659Z,16.80
2019-05-21T04:25:16.650Z,16.81
2019-05-21T04:26:16.628Z,16.82
2019-05-21T04:27:16.618Z,16.80
2019-05-21T04:28:16.608Z,16.81
2019-05-21T04:29:16.596Z,16.83
2019-05-21T04:30:16.591Z,16.82
2019-05-21T04:31:16.604Z,16.82
2019-05-21T04:32:16.567Z,16.83
2019-05-21T04:33:16.555Z,16.84
2019-05-21T04:34:16.542Z,16.82
2019-05-21T04:35:16.532Z,16.83
2019-05-21T04:36:16.521Z,16.83
2019-05-21T04:37:17.524Z,16.82
2019-05-21T04:38:16.503Z,16.81
2019-05-21T04:39:16.511Z,16.81
2019-05-21T04:40:16.478Z,16.81
2019-05-21T04:41:16.476Z,16.80
2019-05-21T04:42:16.459Z,16.82
2019-05-21T04:43:16.472Z,16.82
2019-05-21T04:44:16.435Z,16.82
2019-05-21T04:45:16.429Z,16.84
2019-05-21T04:46:16.416Z,16.85
2019-05-21T04:47:16.407Z,16.85
2019-05-21T04:48:16.393Z,16.86
2019-05-21T04:49:16.402Z,16.88
2019-05-21T04:50:16.378Z,16.86
2019-05-21T04:51:16.361Z,16.87
2019-05-21T04:52:16.350Z,16.88
2019-05-21T04:53:16.341Z,16.88
2019-05-21T04:54:16.330Z,16.88
2019-05-21T04:55:16.331Z,16.88
2019-05-21T04:56:16.309Z,16.88
2019-05-21T04:57:16.298Z,16.89
2019-05-21T04:58:16.287Z,16.89
2019-05-21T04:59:16.276Z,16.91
2019-05-21T05:00:16.265Z,16.92
2019-05-21T05:01:16.267Z,16.93
2019-05-21T05:02:16.297Z,16.94
2019-05-21T05:03:16.309Z,16.96
2019-05-21T05:04:21.409Z,16.96
2019-05-21T05:05:17.216Z,16.99
2019-05-21T05:06:16.208Z,16.99
2019-05-21T05:07:27.843Z,17.00
2019-05-21T05:08:17.178Z,17.01
2019-05-21T05:09:16.169Z,17.01
2019-05-21T05:10:16.191Z,17.03
2019-05-21T05:11:16.148Z,17.05
2019-05-21T05:12:16.174Z,17.05
2019-05-21T05:13:16.136Z,17.05
2019-05-21T05:14:16.115Z,17.06
2019-05-21T05:15:16.106Z,17.07
2019-05-21T05:16:16.094Z,17.06
2019-05-21T05:17:16.085Z,17.05
2019-05-21T05:18:16.072Z,17.05
2019-05-21T05:19:16.078Z,17.07
2019-05-21T05:20:16.062Z,17.07
2019-05-21T05:21:16.040Z,17.09
2019-05-21T05:22:16.030Z,17.12
2019-05-21T05:23:16.023Z,17.14
2019-05-21T05:24:16.010Z,17.15
2019-05-21T05:25:16.013Z,17.18
2019-05-21T05:26:15.993Z,17.21
2019-05-21T05:27:15.978Z,17.23
2019-05-21T05:28:15.967Z,17.29
2019-05-21T05:29:15.956Z,17.33
2019-05-21T05:30:15.951Z,17.39
2019-05-21T05:31:15.959Z,17.44
2019-05-21T05:32:15.924Z,17.49
2019-05-21T05:33:15.920Z,17.53
2019-05-21T05:34:15.903Z,17.55
2019-05-21T05:35:15.894Z,17.57
2019-05-21T05:36:15.882Z,17.61
2019-05-21T05:37:15.881Z,17.62
2019-05-21T05:38:15.859Z,17.66
2019-05-21T05:39:15.848Z,17.71
2019-05-21T05:40:15.865Z,17.75
2019-05-21T05:41:15.828Z,17.77
2019-05-21T05:42:15.814Z,17.78
2019-05-21T05:43:15.819Z,17.77
2019-05-21T05:44:15.793Z,17.77
2019-05-21T05:45:15.782Z,17.80
2019-05-21T05:46:15.812Z,17.79
2019-05-21T05:47:15.760Z,17.78
2019-05-21T05:48:15.751Z,17.76
2019-05-21T05:49:15.765Z,17.73
2019-05-21T05:50:15.731Z,17.70
2019-05-21T05:51:15.716Z,17.67
2019-05-21T05:52:15.706Z,17.64
2019-05-21T05:53:15.698Z,17.61
2019-05-21T05:54:15.684Z,17.56
2019-05-21T05:55:15.690Z,17.50
2019-05-21T05:56:15.662Z,17.49
2019-05-21T05:57:15.652Z,17.45
2019-05-21T05:58:15.645Z,17.42
2019-05-21T05:59:15.633Z,17.40
2019-05-21T06:00:15.630Z,17.37
2019-05-21T06:01:15.621Z,17.34
2019-05-21T06:02:15.600Z,17.31
2019-05-21T06:03:15.589Z,17.27
2019-05-21T06:04:15.578Z,17.24
2019-05-21T06:05:15.567Z,17.21
2019-05-21T06:06:15.557Z,17.18
2019-05-21T06:07:15.556Z,17.15
2019-05-21T06:08:15.536Z,17.11
2019-05-21T06:09:15.526Z,17.07
2019-05-21T06:10:15.515Z,17.05
2019-05-21T06:11:15.506Z,17.07
2019-05-21T06:12:15.495Z,17.07
2019-05-21T06:13:15.495Z,17.10
2019-05-21T06:14:15.476Z,17.12
2019-05-21T06:15:15.462Z,17.10
2019-05-21T06:16:15.453Z,17.09
2019-05-21T06:17:15.444Z,17.09
2019-05-21T06:18:15.430Z,17.10
2019-05-21T06:19:15.432Z,17.09
2019-05-21T06:20:15.407Z,17.12
2019-05-21T06:21:15.397Z,17.13
2019-05-21T06:22:15.388Z,17.10
2019-05-21T06:23:15.376Z,17.09
2019-05-21T06:24:15.382Z,17.09
2019-05-21T06:25:15.366Z,17.09
2019-05-21T06:26:15.345Z,17.09
2019-05-21T06:27:15.338Z,17.10
2019-05-21T06:28:15.324Z,17.13
2019-05-21T06:29:15.327Z,17.15
2019-05-21T06:30:15.302Z,17.18
2019-05-21T06:31:15.300Z,17.19
2019-05-21T06:32:15.279Z,17.21
2019-05-21T06:33:15.269Z,17.23
2019-05-21T06:34:15.260Z,17.27
2019-05-21T06:35:15.253Z,17.32
2019-05-21T06:36:15.242Z,17.35
2019-05-21T06:37:15.239Z,17.42
2019-05-21T06:38:18.175Z,17.51
2019-05-21T06:39:15.206Z,17.54
2019-05-21T06:40:15.195Z,17.60
2019-05-21T06:41:15.247Z,17.62
2019-05-21T06:42:15.172Z,17.66
2019-05-21T06:43:15.186Z,17.69
2019-05-21T06:44:15.153Z,17.72
2019-05-21T06:45:15.144Z,17.77
2019-05-21T06:46:15.130Z,17.79
2019-05-21T06:47:15.120Z,17.81
2019-05-21T06:48:15.109Z,17.83
2019-05-21T06:49:15.112Z,17.85
2019-05-21T06:50:15.090Z,17.89
2019-05-21T06:51:15.077Z,17.91
2019-05-21T06:52:15.066Z,17.95
2019-05-21T06:53:15.056Z,17.97
2019-05-21T06:54:15.150Z,17.97
2019-05-21T06:55:15.047Z,18.00
2019-05-21T06:56:15.024Z,17.98
2019-05-21T06:57:15.013Z,18.03
2019-05-21T06:58:15.001Z,18.06
2019-05-21T06:59:14.989Z,18.08
2019-05-21T07:00:14.980Z,18.08
2019-05-21T07:01:14.978Z,18.08
2019-05-21T07:02:14.957Z,18.09
2019-05-21T07:03:14.947Z,18.08
2019-05-21T07:04:14.935Z,18.06
2019-05-21T07:05:14.924Z,18.03
2019-05-21T07:06:14.913Z,18.03
2019-05-21T07:07:14.927Z,18.01
2019-05-21T07:08:14.891Z,17.98
2019-05-21T07:09:14.884Z,17.99
2019-05-21T07:10:14.883Z,17.99
2019-05-21T07:11:14.860Z,17.98
2019-05-21T07:12:14.848Z,17.98
2019-05-21T07:13:14.853Z,17.96
2019-05-21T07:14:14.827Z,17.93
2019-05-21T07:15:14.814Z,17.90
2019-05-21T07:16:14.804Z,17.89
2019-05-21T07:17:14.793Z,17.90
2019-05-21T07:18:14.783Z,17.92
2019-05-21T07:19:14.786Z,17.91
2019-05-21T07:20:14.761Z,17.92
2019-05-21T07:21:14.750Z,17.94
2019-05-21T07:22:14.740Z,17.97
2019-05-21T07:23:14.727Z,17.98
2019-05-21T07:24:14.717Z,18.00
2019-05-21T07:25:15.442Z,18.00
2019-05-21T07:26:14.695Z,18.05
2019-05-21T07:27:14.684Z,18.04
2019-05-21T07:28:14.678Z,18.04
2019-05-21T07:29:14.811Z,18.03
2019-05-21T07:30:14.651Z,18.03
2019-05-21T07:31:17.424Z,18.00
2019-05-21T07:32:14.673Z,18.01
2019-05-21T07:33:14.816Z,18.01
2019-05-21T07:34:14.608Z,18.01
2019-05-21T07:35:14.614Z,17.99
2019-05-21T07:36:14.591Z,18.00
2019-05-21T07:37:14.586Z,18.00
2019-05-21T07:38:14.563Z,17.99
2019-05-21T07:39:14.558Z,17.97
2019-05-21T07:40:14.542Z,17.97
2019-05-21T07:41:14.531Z,17.99
2019-05-21T07:42:14.520Z,18.00
2019-05-21T07:43:14.526Z,18.01
2019-05-21T07:44:14.499Z,18.00
2019-05-21T07:45:14.489Z,18.01
2019-05-21T07:46:14.476Z,18.01
2019-05-21T07:47:14.467Z,18.05
2019-05-21T07:48:14.453Z,18.08
2019-05-21T07:49:14.453Z,18.09
2019-05-21T07:50:14.435Z,18.09
2019-05-21T07:51:14.421Z,18.11
2019-05-21T07:52:14.409Z,18.11
2019-05-21T07:53:14.398Z,18.15
2019-05-21T07:54:14.458Z,18.17
2019-05-21T07:55:14.386Z,18.15
2019-05-21T07:56:14.365Z,18.15
2019-05-21T07:57:14.355Z,18.16
2019-05-21T07:58:14.347Z,18.19
2019-05-21T07:59:14.330Z,18.22
2019-05-21T08:00:14.320Z,18.24
2019-05-21T08:01:14.319Z,18.25
2019-05-21T08:02:14.298Z,18.28
2019-05-21T08:03:14.294Z,18.28
2019-05-21T08:04:14.331Z,18.31
2019-05-21T08:05:14.266Z,18.28
2019-05-21T08:06:15.058Z,18.28
2019-05-21T08:07:14.282Z,18.28
2019-05-21T08:08:14.234Z,18.32
2019-05-21T08:09:14.890Z,18.35
2019-05-21T08:10:14.216Z,18.36
2019-05-21T08:11:14.218Z,18.34
2019-05-21T08:12:35.496Z,18.33
2019-05-21T08:13:15.185Z,18.32
2019-05-21T08:14:14.168Z,18.34
2019-05-21T08:15:14.154Z,18.35
2019-05-21T08:16:14.143Z,18.39
2019-05-21T08:17:14.131Z,18.44
2019-05-21T08:18:14.125Z,18.44
2019-05-21T08:19:14.119Z,18.45
2019-05-21T08:20:14.100Z,18.44
2019-05-21T08:21:14.087Z,18.43
2019-05-21T08:22:14.082Z,18.43
2019-05-21T08:23:14.075Z,18.47
2019-05-21T08:24:14.066Z,18.46
2019-05-21T08:25:15.037Z,18.47
2019-05-21T08:26:14.031Z,18.49
2019-05-21T08:27:14.021Z,18.53
2019-05-21T08:28:14.044Z,18.56
2019-05-21T08:29:14.003Z,18.58
2019-05-21T08:30:13.986Z,18.60
2019-05-21T08:31:13.988Z,18.61
2019-05-21T08:32:13.964Z,18.64
2019-05-21T08:33:13.955Z,18.65
2019-05-21T08:34:13.941Z,18.65
2019-05-21T08:35:13.933Z,18.62
2019-05-21T08:36:13.922Z,18.61
2019-05-21T08:37:13.921Z,18.62
2019-05-21T08:38:13.906Z,18.63
2019-05-21T08:39:27.836Z,18.62
2019-05-21T08:40:14.874Z,18.59
2019-05-21T08:41:13.864Z,18.58
2019-05-21T08:42:13.852Z,18.55
2019-05-21T08:43:13.864Z,18.53
2019-05-21T08:44:13.838Z,18.53
2019-05-21T08:45:13.824Z,18.51
2019-05-21T08:46:13.809Z,18.47
2019-05-21T08:47:13.856Z,18.43
2019-05-21T08:48:13.787Z,18.39
2019-05-21T08:49:13.787Z,18.38
2019-05-21T08:50:13.765Z,18.37
2019-05-21T08:51:13.759Z,18.33
2019-05-21T08:52:13.780Z,18.30
2019-05-21T08:53:13.732Z,18.28
2019-05-21T08:54:13.732Z,18.29
2019-05-21T08:55:13.723Z,18.37
2019-05-21T08:56:13.698Z,18.42
2019-05-21T08:57:13.687Z,18.44
2019-05-21T08:58:13.676Z,18.47
2019-05-21T08:59:13.667Z,18.50
2019-05-21T09:00:13.654Z,18.53
2019-05-21T09:01:13.664Z,18.58
2019-05-21T09:02:13.632Z,18.63
2019-05-21T09:03:13.623Z,18.66
2019-05-21T09:04:13.611Z,18.69
2019-05-21T09:05:13.599Z,18.72
2019-05-21T09:06:13.588Z,18.74
2019-05-21T09:07:13.598Z,18.77
2019-05-21T09:08:13.570Z,18.80
2019-05-21T09:09:13.555Z,18.81
2019-05-21T09:10:13.545Z,18.82
2019-05-21T09:11:13.533Z,18.82
2019-05-21T09:12:13.525Z,18.78
2019-05-21T09:13:13.524Z,18.73
2019-05-21T09:14:13.500Z,18.69
2019-05-21T09:15:13.489Z,18.68
2019-05-21T09:16:13.479Z,18.68
2019-05-21T09:17:13.468Z,18.62
2019-05-21T09:18:13.456Z,18.55
2019-05-21T09:19:13.456Z,18.51
2019-05-21T09:20:13.434Z,18.49
2019-05-21T09:21:13.422Z,18.48
2019-05-21T09:22:13.418Z,18.47
2019-05-21T09:23:13.399Z,18.45
2019-05-21T09:24:13.389Z,18.45
2019-05-21T09:25:13.397Z,18.47
2019-05-21T09:26:13.370Z,18.48
2019-05-21T09:27:13.357Z,18.48
2019-05-21T09:28:13.343Z,18.56
2019-05-21T09:29:13.333Z,18.65
2019-05-21T09:30:13.323Z,18.72
2019-05-21T09:31:13.321Z,18.78
2019-05-21T09:32:13.300Z,18.86
2019-05-21T09:33:13.292Z,18.90
2019-05-21T09:34:13.277Z,18.91
2019-05-21T09:35:13.523Z,18.91
2019-05-21T09:36:13.255Z,18.95
2019-05-21T09:37:19.924Z,18.95
2019-05-21T09:38:14.240Z,18.95
2019-05-21T09:39:13.225Z,18.96
2019-05-21T09:40:13.214Z,18.96
2019-05-21T09:41:13.201Z,18.96
2019-05-21T09:42:13.193Z,18.97
2019-05-21T09:43:13.190Z,19.04
2019-05-21T09:44:13.173Z,19.06
2019-05-21T09:45:13.177Z,19.08
2019-05-21T09:46:13.151Z,19.08
2019-05-21T09:47:13.137Z,19.09
2019-05-21T09:48:13.125Z,19.08
2019-05-21T09:49:13.125Z,19.08
2019-05-21T09:50:13.110Z,19.07
2019-05-21T09:51:19.888Z,19.03
2019-05-21T09:52:14.083Z,18.98
2019-05-21T09:53:13.071Z,18.96
2019-05-21T09:54:13.061Z,18.95
2019-05-21T09:55:13.083Z,18.92
2019-05-21T09:56:13.042Z,18.89
2019-05-21T09:57:13.032Z,18.90
2019-05-21T09:58:13.041Z,18.88
2019-05-21T09:59:13.010Z,18.85
2019-05-21T10:00:12.996Z,18.83
2019-05-21T10:01:12.996Z,18.82
2019-05-21T10:02:12.975Z,18.83
2019-05-21T10:03:12.967Z,18.83
2019-05-21T10:04:12.953Z,18.82
2019-05-21T10:05:12.943Z,18.83
2019-05-21T10:06:12.932Z,18.86
2019-05-21T10:07:12.940Z,18.84
2019-05-21T10:08:12.911Z,18.86
2019-05-21T10:09:12.899Z,18.84
2019-05-21T10:10:12.892Z,18.81
2019-05-21T10:11:12.878Z,18.78
2019-05-21T10:12:12.867Z,18.77
2019-05-21T10:13:12.876Z,18.79
2019-05-21T10:14:12.845Z,18.78
2019-05-21T10:15:12.837Z,18.81
2019-05-21T10:16:12.823Z,18.81
2019-05-21T10:17:12.812Z,18.83
2019-05-21T10:18:12.803Z,18.82
2019-05-21T10:19:12.802Z,18.80
2019-05-21T10:20:12.849Z,18.81
2019-05-21T10:21:12.776Z,18.84
2019-05-21T10:22:12.823Z,18.84
2019-05-21T10:23:12.765Z,18.89
2019-05-21T10:24:12.743Z,18.91
2019-05-21T10:25:15.798Z,18.97
2019-05-21T10:26:12.728Z,18.99
2019-05-21T10:27:12.707Z,18.98
2019-05-21T10:28:12.719Z,18.98
2019-05-21T10:29:12.684Z,19.00
2019-05-21T10:30:12.677Z,18.99
2019-05-21T10:31:12.678Z,18.98
2019-05-21T10:32:12.653Z,18.98
2019-05-21T10:33:12.657Z,18.99
2019-05-21T10:34:13.490Z,19.04
2019-05-21T10:35:12.622Z,19.09
2019-05-21T10:36:12.613Z,19.18
2019-05-21T10:37:12.610Z,19.21
2019-05-21T10:38:12.599Z,19.25
2019-05-21T10:39:12.593Z,19.26
2019-05-21T10:40:12.577Z,19.28
2019-05-21T10:41:12.561Z,19.37
2019-05-21T10:42:12.548Z,19.38
2019-05-21T10:43:12.546Z,19.35
2019-05-21T10:44:12.524Z,19.29
2019-05-21T10:45:12.551Z,19.25
2019-05-21T10:46:12.502Z,19.22
2019-05-21T10:47:16.235Z,19.19
2019-05-21T10:48:12.509Z,19.18
2019-05-21T10:49:12.484Z,19.20
2019-05-21T10:50:12.462Z,19.27
2019-05-21T10:51:12.676Z,19.27
2019-05-21T10:52:12.439Z,19.28
2019-05-21T10:53:12.428Z,19.28
2019-05-21T10:54:12.422Z,19.33
2019-05-21T10:55:15.843Z,19.40
2019-05-21T10:56:12.421Z,19.43
2019-05-21T10:57:12.385Z,19.41
2019-05-21T10:58:12.381Z,19.44
2019-05-21T10:59:12.379Z,19.46
2019-05-21T11:00:12.356Z,19.47
2019-05-21T11:01:12.357Z,19.46
2019-05-21T11:02:12.340Z,19.42
2019-05-21T11:03:12.324Z,19.37
2019-05-21T11:04:12.320Z,19.31
2019-05-21T11:05:12.303Z,19.28
2019-05-21T11:06:12.294Z,19.26
2019-05-21T11:07:12.290Z,19.23
2019-05-21T11:08:23.447Z,19.17
2019-05-21T11:09:13.255Z,19.14
2019-05-21T11:10:12.348Z,19.14
2019-05-21T11:11:12.236Z,19.12
2019-05-21T11:12:12.228Z,19.15
2019-05-21T11:13:12.228Z,19.15
2019-05-21T11:14:12.226Z,19.19
2019-05-21T11:15:12.224Z,19.21
2019-05-21T11:16:12.195Z,19.23
2019-05-21T11:17:12.177Z,19.26
2019-05-21T11:18:12.327Z,19.26
2019-05-21T11:19:12.173Z,19.27
2019-05-21T11:20:12.150Z,19.29
2019-05-21T11:21:12.128Z,19.32
2019-05-21T11:22:12.119Z,19.34
2019-05-21T11:23:12.170Z,19.35
2019-05-21T11:24:12.107Z,19.37
2019-05-21T11:25:12.100Z,19.39
2019-05-21T11:26:12.077Z,19.40
2019-05-21T11:27:12.076Z,19.39
2019-05-21T11:28:12.057Z,19.36
2019-05-21T11:29:12.043Z,19.36
2019-05-21T11:30:12.032Z,19.37
2019-05-21T11:31:12.047Z,19.38
2019-05-21T11:32:12.010Z,19.36
2019-05-21T11:33:12.001Z,19.30
2019-05-21T11:34:11.989Z,19.25
2019-05-21T11:35:11.986Z,19.23
2019-05-21T11:36:11.969Z,19.22
2019-05-21T11:37:11.978Z,19.26
2019-05-21T11:38:11.946Z,19.27
2019-05-21T11:39:11.938Z,19.29
2019-05-21T11:40:11.924Z,19.36
2019-05-21T11:41:11.918Z,19.40
2019-05-21T11:42:11.908Z,19.45
2019-05-21T11:43:11.905Z,19.47
2019-05-21T11:44:11.882Z,19.50
2019-05-21T11:45:11.870Z,19.52
2019-05-21T11:46:11.861Z,19.56
2019-05-21T11:47:11.849Z,19.54
2019-05-21T11:48:11.839Z,19.54
2019-05-21T11:49:11.891Z,19.53
2019-05-21T11:50:11.824Z,19.56
2019-05-21T11:51:12.803Z,19.56
2019-05-21T11:52:11.795Z,19.57
2019-05-21T11:53:11.787Z,19.57
2019-05-21T11:54:11.993Z,19.57
2019-05-21T11:55:11.772Z,19.57
2019-05-21T11:56:11.752Z,19.58
2019-05-21T11:57:11.740Z,19.61
2019-05-21T11:58:11.728Z,19.63
2019-05-21T11:59:11.778Z,19.62
2019-05-21T12:00:11.706Z,19.62
2019-05-21T12:01:11.707Z,19.60
2019-05-21T12:02:11.686Z,19.59
2019-05-21T12:03:11.674Z,19.62
2019-05-21T12:04:11.664Z,19.69
2019-05-21T12:05:11.653Z,19.74
2019-05-21T12:06:11.641Z,19.81
2019-05-21T12:07:11.643Z,19.87
2019-05-21T12:08:11.628Z,19.90
2019-05-21T12:09:11.607Z,19.94
2019-05-21T12:10:11.601Z,19.99
2019-05-21T12:11:11.595Z,20.05
2019-05-21T12:12:11.581Z,20.08
2019-05-21T12:13:11.588Z,20.13
2019-05-21T12:14:11.553Z,20.20
2019-05-21T12:15:11.541Z,20.27
2019-05-21T12:16:11.539Z,20.37
2019-05-21T12:17:11.523Z,20.40
2019-05-21T12:18:11.510Z,20.43
2019-05-21T12:19:11.508Z,20.44
2019-05-21T12:20:11.486Z,20.49
2019-05-21T12:21:11.477Z,20.58
2019-05-21T12:22:11.464Z,20.70
2019-05-21T12:23:11.454Z,20.77
2019-05-21T12:24:11.446Z,20.87
2019-05-21T12:25:11.448Z,20.97
2019-05-21T12:26:11.422Z,21.01
2019-05-21T12:27:11.413Z,21.07
2019-05-21T12:28:11.621Z,21.11
2019-05-21T12:29:11.387Z,21.12
2019-05-21T12:30:11.379Z,21.15
2019-05-21T12:31:11.376Z,21.17
2019-05-21T12:32:11.366Z,21.15
2019-05-21T12:33:11.345Z,21.16
2019-05-21T12:34:11.330Z,21.20
2019-05-21T12:35:11.322Z,21.30
2019-05-21T12:36:11.313Z,21.39
2019-05-21T12:37:11.308Z,21.45
2019-05-21T12:38:11.289Z,21.46
2019-05-21T12:39:14.517Z,21.47
2019-05-21T12:40:11.265Z,21.51
2019-05-21T12:41:13.578Z,21.58
2019-05-21T12:42:11.250Z,21.67
2019-05-21T12:43:11.258Z,21.76
2019-05-21T12:44:11.225Z,21.87
2019-05-21T12:45:11.211Z,21.90
2019-05-21T12:46:11.200Z,21.88
2019-05-21T12:47:11.189Z,21.90
2019-05-21T12:48:11.182Z,21.95
2019-05-21T12:49:11.179Z,21.97
2019-05-21T12:50:11.157Z,21.97
2019-05-21T12:51:11.144Z,21.94
2019-05-21T12:52:11.142Z,21.88